sensor_id;sensor_type;location;lat;lon;timestamp;P1;durP1;ratioP1;P2;durP2;ratioP2
62880;SDS011;48969;49.934;8.596;2022-10-31T00:02:15;12.40;;;7.50;;
62880;SDS011;48969;49.934;8.596;2022-10-31T00:04:40;13.57;;;7.83;;
62880;SDS011;48969;49.934;8.596;2022-10-31T00:07:05;12.00;;;7.90;;
62880;SDS011;48969;49.934;8.596;2022-10-31T00:09:30;12.82;;;7.57;;
62880;SDS011;48969;49.934;8.596;2022-10-31T00:11:55;14.85;;;7.43;;
62880;SDS011;48969;49.934;8.596;2022-10-31T00:14:20;13.55;;;7.45;;
62880;SDS011;48969;49.934;8.596;2022-10-31T00:16:45;13.10;;;7.82;;
62880;SDS011;48969;49.934;8.596;2022-10-31T00:19:11;13.65;;;7.68;;
62880;SDS011;48969;49.934;8.596;2022-10-31T00:21:36;17.73;;;7.47;;
62880;SDS011;48969;49.934;8.596;2022-10-31T00:24:01;16.80;;;7.57;;
62880;SDS011;48969;49.934;8.596;2022-10-31T00:26:27;12.68;;;7.70;;
62880;SDS011;48969;49.934;8.596;2022-10-31T00:28:52;12.23;;;7.57;;
62880;SDS011;48969;49.934;8.596;2022-10-31T00:31:18;12.43;;;7.60;;
62880;SDS011;48969;49.934;8.596;2022-10-31T00:33:43;10.23;;;7.93;;
62880;SDS011;48969;49.934;8.596;2022-10-31T00:36:12;11.93;;;7.38;;
62880;SDS011;48969;49.934;8.596;2022-10-31T00:38:38;16.08;;;7.63;;
62880;SDS011;48969;49.934;8.596;2022-10-31T00:41:03;10.77;;;7.88;;
62880;SDS011;48969;49.934;8.596;2022-10-31T00:43:28;11.55;;;8.45;;
62880;SDS011;48969;49.934;8.596;2022-10-31T00:45:53;13.83;;;8.37;;
62880;SDS011;48969;49.934;8.596;2022-10-31T00:48:18;11.88;;;7.30;;
62880;SDS011;48969;49.934;8.596;2022-10-31T00:50:44;12.75;;;7.70;;
62880;SDS011;48969;49.934;8.596;2022-10-31T00:53:09;14.57;;;7.50;;
62880;SDS011;48969;49.934;8.596;2022-10-31T00:55:34;14.23;;;7.87;;
62880;SDS011;48969;49.934;8.596;2022-10-31T00:57:59;13.47;;;7.80;;
62880;SDS011;48969;49.934;8.596;2022-10-31T01:00:24;12.43;;;8.73;;
62880;SDS011;48969;49.934;8.596;2022-10-31T01:02:49;13.25;;;8.50;;
62880;SDS011;48969;49.934;8.596;2022-10-31T01:05:15;11.85;;;7.63;;
62880;SDS011;48969;49.934;8.596;2022-10-31T01:07:40;10.97;;;7.30;;
62880;SDS011;48969;49.934;8.596;2022-10-31T01:10:06;12.90;;;7.07;;
62880;SDS011;48969;49.934;8.596;2022-10-31T01:12:38;11.43;;;7.45;;
62880;SDS011;48969;49.934;8.596;2022-10-31T01:15:03;12.50;;;8.30;;
62880;SDS011;48969;49.934;8.596;2022-10-31T01:17:29;12.35;;;8.30;;
62880;SDS011;48969;49.934;8.596;2022-10-31T01:19:54;15.85;;;8.38;;
62880;SDS011;48969;49.934;8.596;2022-10-31T01:22:19;13.05;;;8.55;;
62880;SDS011;48969;49.934;8.596;2022-10-31T01:24:44;10.73;;;7.97;;
62880;SDS011;48969;49.934;8.596;2022-10-31T01:27:09;11.07;;;6.95;;
62880;SDS011;48969;49.934;8.596;2022-10-31T01:29:35;9.07;;;6.63;;
62880;SDS011;48969;49.934;8.596;2022-10-31T01:32:00;11.77;;;7.15;;
62880;SDS011;48969;49.934;8.596;2022-10-31T01:34:25;10.68;;;6.63;;
62880;SDS011;48969;49.934;8.596;2022-10-31T01:36:51;13.93;;;7.18;;
62880;SDS011;48969;49.934;8.596;2022-10-31T01:39:17;10.77;;;7.78;;
62880;SDS011;48969;49.934;8.596;2022-10-31T01:41:43;14.00;;;8.15;;
62880;SDS011;48969;49.934;8.596;2022-10-31T01:49:06;12.38;;;8.27;;
62880;SDS011;48969;49.934;8.596;2022-10-31T01:51:36;14.10;;;8.35;;
62880;SDS011;48969;49.934;8.596;2022-10-31T01:54:03;12.80;;;7.35;;
62880;SDS011;48969;49.934;8.596;2022-10-31T01:56:29;13.48;;;7.05;;
62880;SDS011;48969;49.934;8.596;2022-10-31T01:58:54;12.75;;;7.68;;
62880;SDS011;48969;49.934;8.596;2022-10-31T02:01:21;12.18;;;7.70;;
62880;SDS011;48969;49.934;8.596;2022-10-31T02:03:46;13.43;;;7.85;;
62880;SDS011;48969;49.934;8.596;2022-10-31T02:06:19;13.35;;;8.10;;
62880;SDS011;48969;49.934;8.596;2022-10-31T02:08:46;13.00;;;7.88;;
62880;SDS011;48969;49.934;8.596;2022-10-31T02:11:11;12.80;;;7.05;;
62880;SDS011;48969;49.934;8.596;2022-10-31T02:13:36;11.73;;;7.30;;
62880;SDS011;48969;49.934;8.596;2022-10-31T02:16:02;11.27;;;7.38;;
62880;SDS011;48969;49.934;8.596;2022-10-31T02:18:28;14.40;;;7.88;;
62880;SDS011;48969;49.934;8.596;2022-10-31T02:23:20;13.30;;;8.07;;
62880;SDS011;48969;49.934;8.596;2022-10-31T02:31:16;15.10;;;8.40;;
62880;SDS011;48969;49.934;8.596;2022-10-31T02:33:51;14.18;;;7.95;;
62880;SDS011;48969;49.934;8.596;2022-10-31T02:36:22;10.82;;;8.32;;
62880;SDS011;48969;49.934;8.596;2022-10-31T02:41:34;15.05;;;8.38;;
62880;SDS011;48969;49.934;8.596;2022-10-31T02:46:28;14.75;;;7.45;;
62880;SDS011;48969;49.934;8.596;2022-10-31T02:48:57;11.95;;;7.40;;
62880;SDS011;48969;49.934;8.596;2022-10-31T02:51:24;9.55;;;7.43;;
62880;SDS011;48969;49.934;8.596;2022-10-31T02:53:49;12.50;;;7.53;;
62880;SDS011;48969;49.934;8.596;2022-10-31T02:56:15;11.87;;;7.13;;
62880;SDS011;48969;49.934;8.596;2022-10-31T02:58:42;10.90;;;6.82;;
62880;SDS011;48969;49.934;8.596;2022-10-31T03:03:44;12.52;;;6.97;;
62880;SDS011;48969;49.934;8.596;2022-10-31T03:11:45;10.02;;;6.68;;
62880;SDS011;48969;49.934;8.596;2022-10-31T03:14:24;11.73;;;7.25;;
62880;SDS011;48969;49.934;8.596;2022-10-31T03:16:52;15.77;;;8.13;;
62880;SDS011;48969;49.934;8.596;2022-10-31T03:19:23;12.25;;;8.10;;
62880;SDS011;48969;49.934;8.596;2022-10-31T03:21:53;14.27;;;9.60;;
62880;SDS011;48969;49.934;8.596;2022-10-31T03:24:20;14.73;;;9.93;;
62880;SDS011;48969;49.934;8.596;2022-10-31T03:26:47;18.05;;;10.05;;
62880;SDS011;48969;49.934;8.596;2022-10-31T03:29:14;14.63;;;9.07;;
62880;SDS011;48969;49.934;8.596;2022-10-31T03:31:45;11.82;;;8.70;;
62880;SDS011;48969;49.934;8.596;2022-10-31T03:34:11;12.13;;;8.93;;
62880;SDS011;48969;49.934;8.596;2022-10-31T03:36:37;12.85;;;8.32;;
62880;SDS011;48969;49.934;8.596;2022-10-31T03:39:04;14.30;;;9.23;;
62880;SDS011;48969;49.934;8.596;2022-10-31T03:41:32;12.52;;;9.15;;
62880;SDS011;48969;49.934;8.596;2022-10-31T03:43:59;13.68;;;9.10;;
62880;SDS011;48969;49.934;8.596;2022-10-31T03:46:25;12.10;;;8.52;;
62880;SDS011;48969;49.934;8.596;2022-10-31T03:48:51;14.65;;;8.48;;
62880;SDS011;48969;49.934;8.596;2022-10-31T03:53:59;12.05;;;8.90;;
62880;SDS011;48969;49.934;8.596;2022-10-31T03:56:48;12.63;;;8.48;;
62880;SDS011;48969;49.934;8.596;2022-10-31T03:59:18;12.73;;;8.45;;
62880;SDS011;48969;49.934;8.596;2022-10-31T04:01:47;12.20;;;8.60;;
62880;SDS011;48969;49.934;8.596;2022-10-31T04:04:12;10.90;;;8.45;;
62880;SDS011;48969;49.934;8.596;2022-10-31T04:06:38;12.55;;;8.90;;
62880;SDS011;48969;49.934;8.596;2022-10-31T04:09:05;12.25;;;9.50;;
62880;SDS011;48969;49.934;8.596;2022-10-31T04:11:33;12.57;;;9.15;;
62880;SDS011;48969;49.934;8.596;2022-10-31T04:13:59;12.30;;;9.63;;
62880;SDS011;48969;49.934;8.596;2022-10-31T04:16:26;13.07;;;10.20;;
62880;SDS011;48969;49.934;8.596;2022-10-31T04:18:51;10.73;;;9.13;;
62880;SDS011;48969;49.934;8.596;2022-10-31T04:21:17;12.02;;;9.45;;
62880;SDS011;48969;49.934;8.596;2022-10-31T04:23:42;11.52;;;8.68;;
62880;SDS011;48969;49.934;8.596;2022-10-31T04:26:08;13.10;;;8.77;;
62880;SDS011;48969;49.934;8.596;2022-10-31T04:28:35;11.80;;;8.70;;
62880;SDS011;48969;49.934;8.596;2022-10-31T04:31:00;9.40;;;8.13;;
62880;SDS011;48969;49.934;8.596;2022-10-31T04:33:25;14.10;;;9.30;;
62880;SDS011;48969;49.934;8.596;2022-10-31T04:35:50;10.60;;;8.25;;
62880;SDS011;48969;49.934;8.596;2022-10-31T04:38:16;11.30;;;8.52;;
62880;SDS011;48969;49.934;8.596;2022-10-31T04:40:41;9.30;;;8.32;;
62880;SDS011;48969;49.934;8.596;2022-10-31T04:43:06;9.03;;;8.10;;
62880;SDS011;48969;49.934;8.596;2022-10-31T04:45:31;9.82;;;8.70;;
62880;SDS011;48969;49.934;8.596;2022-10-31T04:47:56;12.23;;;8.10;;
62880;SDS011;48969;49.934;8.596;2022-10-31T04:50:22;10.57;;;8.50;;
62880;SDS011;48969;49.934;8.596;2022-10-31T04:52:47;11.35;;;9.10;;
62880;SDS011;48969;49.934;8.596;2022-10-31T04:55:13;14.83;;;9.57;;
62880;SDS011;48969;49.934;8.596;2022-10-31T04:57:41;15.20;;;9.75;;
62880;SDS011;48969;49.934;8.596;2022-10-31T05:00:07;13.02;;;9.60;;
62880;SDS011;48969;49.934;8.596;2022-10-31T05:02:32;14.38;;;10.07;;
62880;SDS011;48969;49.934;8.596;2022-10-31T05:04:58;12.25;;;9.93;;
62880;SDS011;48969;49.934;8.596;2022-10-31T05:07:23;12.00;;;9.60;;
62880;SDS011;48969;49.934;8.596;2022-10-31T05:09:48;14.27;;;9.23;;
62880;SDS011;48969;49.934;8.596;2022-10-31T05:12:13;14.35;;;10.23;;
62880;SDS011;48969;49.934;8.596;2022-10-31T05:14:38;11.90;;;10.50;;
62880;SDS011;48969;49.934;8.596;2022-10-31T05:17:03;15.65;;;9.65;;
62880;SDS011;48969;49.934;8.596;2022-10-31T05:19:28;11.65;;;9.48;;
62880;SDS011;48969;49.934;8.596;2022-10-31T05:21:54;11.87;;;9.80;;
62880;SDS011;48969;49.934;8.596;2022-10-31T05:24:19;12.73;;;9.90;;
62880;SDS011;48969;49.934;8.596;2022-10-31T05:26:46;12.13;;;9.32;;
62880;SDS011;48969;49.934;8.596;2022-10-31T05:29:11;13.32;;;9.52;;
62880;SDS011;48969;49.934;8.596;2022-10-31T05:31:36;12.43;;;8.95;;
62880;SDS011;48969;49.934;8.596;2022-10-31T05:34:02;12.85;;;10.40;;
62880;SDS011;48969;49.934;8.596;2022-10-31T05:36:27;11.88;;;9.30;;
62880;SDS011;48969;49.934;8.596;2022-10-31T05:38:52;13.20;;;10.73;;
62880;SDS011;48969;49.934;8.596;2022-10-31T05:41:17;15.57;;;11.05;;
62880;SDS011;48969;49.934;8.596;2022-10-31T05:43:42;16.27;;;10.38;;
62880;SDS011;48969;49.934;8.596;2022-10-31T05:46:08;14.02;;;10.85;;
62880;SDS011;48969;49.934;8.596;2022-10-31T05:48:33;18.42;;;10.40;;
62880;SDS011;48969;49.934;8.596;2022-10-31T05:50:58;14.43;;;9.52;;
62880;SDS011;48969;49.934;8.596;2022-10-31T05:53:23;12.60;;;10.07;;
62880;SDS011;48969;49.934;8.596;2022-10-31T05:55:48;14.15;;;10.23;;
62880;SDS011;48969;49.934;8.596;2022-10-31T05:58:14;13.80;;;10.43;;
62880;SDS011;48969;49.934;8.596;2022-10-31T06:00:39;16.27;;;10.33;;
62880;SDS011;48969;49.934;8.596;2022-10-31T06:03:06;17.88;;;10.02;;
62880;SDS011;48969;49.934;8.596;2022-10-31T06:05:32;13.43;;;9.93;;
62880;SDS011;48969;49.934;8.596;2022-10-31T06:07:57;13.55;;;10.43;;
62880;SDS011;48969;49.934;8.596;2022-10-31T06:10:23;12.65;;;9.75;;
62880;SDS011;48969;49.934;8.596;2022-10-31T06:12:48;15.13;;;9.80;;
62880;SDS011;48969;49.934;8.596;2022-10-31T06:15:13;14.27;;;10.07;;
62880;SDS011;48969;49.934;8.596;2022-10-31T06:17:39;10.65;;;9.52;;
62880;SDS011;48969;49.934;8.596;2022-10-31T06:20:04;13.23;;;10.10;;
62880;SDS011;48969;49.934;8.596;2022-10-31T06:22:29;13.65;;;9.82;;
62880;SDS011;48969;49.934;8.596;2022-10-31T06:24:55;13.40;;;9.73;;
62880;SDS011;48969;49.934;8.596;2022-10-31T06:27:20;13.38;;;9.32;;
62880;SDS011;48969;49.934;8.596;2022-10-31T06:29:45;18.33;;;9.80;;
62880;SDS011;48969;49.934;8.596;2022-10-31T06:32:11;12.80;;;9.85;;
62880;SDS011;48969;49.934;8.596;2022-10-31T06:34:36;16.48;;;10.05;;
62880;SDS011;48969;49.934;8.596;2022-10-31T06:37:01;14.27;;;9.45;;
62880;SDS011;48969;49.934;8.596;2022-10-31T06:39:26;11.13;;;9.60;;
62880;SDS011;48969;49.934;8.596;2022-10-31T06:41:52;11.90;;;9.10;;
62880;SDS011;48969;49.934;8.596;2022-10-31T06:44:17;13.40;;;10.10;;
62880;SDS011;48969;49.934;8.596;2022-10-31T06:46:42;12.80;;;9.70;;
62880;SDS011;48969;49.934;8.596;2022-10-31T06:49:08;15.27;;;9.73;;
62880;SDS011;48969;49.934;8.596;2022-10-31T06:51:33;14.13;;;10.13;;
62880;SDS011;48969;49.934;8.596;2022-10-31T06:53:58;14.57;;;9.32;;
62880;SDS011;48969;49.934;8.596;2022-10-31T06:56:23;15.70;;;9.65;;
62880;SDS011;48969;49.934;8.596;2022-10-31T06:58:48;15.60;;;9.73;;
62880;SDS011;48969;49.934;8.596;2022-10-31T07:01:14;11.82;;;8.85;;
62880;SDS011;48969;49.934;8.596;2022-10-31T07:03:39;13.02;;;9.07;;
62880;SDS011;48969;49.934;8.596;2022-10-31T07:06:04;15.88;;;8.90;;
62880;SDS011;48969;49.934;8.596;2022-10-31T07:08:29;11.10;;;8.75;;
62880;SDS011;48969;49.934;8.596;2022-10-31T07:10:55;15.00;;;10.00;;
62880;SDS011;48969;49.934;8.596;2022-10-31T07:13:21;12.00;;;8.95;;
62880;SDS011;48969;49.934;8.596;2022-10-31T07:15:50;13.25;;;10.68;;
62880;SDS011;48969;49.934;8.596;2022-10-31T07:18:16;15.27;;;9.93;;
62880;SDS011;48969;49.934;8.596;2022-10-31T07:20:41;13.63;;;10.95;;
62880;SDS011;48969;49.934;8.596;2022-10-31T07:23:07;14.65;;;10.40;;
62880;SDS011;48969;49.934;8.596;2022-10-31T07:25:32;14.93;;;10.63;;
62880;SDS011;48969;49.934;8.596;2022-10-31T07:27:57;14.13;;;9.67;;
62880;SDS011;48969;49.934;8.596;2022-10-31T07:30:22;17.17;;;9.90;;
62880;SDS011;48969;49.934;8.596;2022-10-31T07:32:48;14.25;;;9.27;;
62880;SDS011;48969;49.934;8.596;2022-10-31T07:35:15;13.07;;;9.40;;
62880;SDS011;48969;49.934;8.596;2022-10-31T07:37:40;13.35;;;9.25;;
62880;SDS011;48969;49.934;8.596;2022-10-31T07:40:06;12.60;;;9.20;;
62880;SDS011;48969;49.934;8.596;2022-10-31T07:42:35;14.95;;;9.77;;
62880;SDS011;48969;49.934;8.596;2022-10-31T07:45:01;13.82;;;9.55;;
62880;SDS011;48969;49.934;8.596;2022-10-31T07:47:26;11.80;;;9.77;;
62880;SDS011;48969;49.934;8.596;2022-10-31T07:49:51;14.20;;;10.50;;
62880;SDS011;48969;49.934;8.596;2022-10-31T07:52:16;13.30;;;9.60;;
62880;SDS011;48969;49.934;8.596;2022-10-31T07:54:41;14.67;;;10.43;;
62880;SDS011;48969;49.934;8.596;2022-10-31T07:57:06;14.10;;;10.23;;
62880;SDS011;48969;49.934;8.596;2022-10-31T07:59:32;15.40;;;9.83;;
62880;SDS011;48969;49.934;8.596;2022-10-31T08:01:57;11.70;;;9.60;;
62880;SDS011;48969;49.934;8.596;2022-10-31T08:04:22;13.63;;;9.43;;
62880;SDS011;48969;49.934;8.596;2022-10-31T08:06:47;13.73;;;9.80;;
62880;SDS011;48969;49.934;8.596;2022-10-31T08:09:13;15.27;;;10.05;;
62880;SDS011;48969;49.934;8.596;2022-10-31T08:11:38;12.73;;;10.43;;
62880;SDS011;48969;49.934;8.596;2022-10-31T08:14:03;15.23;;;10.27;;
62880;SDS011;48969;49.934;8.596;2022-10-31T08:16:28;15.02;;;9.85;;
62880;SDS011;48969;49.934;8.596;2022-10-31T08:18:54;14.35;;;9.55;;
62880;SDS011;48969;49.934;8.596;2022-10-31T08:21:20;14.15;;;8.93;;
62880;SDS011;48969;49.934;8.596;2022-10-31T08:23:45;12.90;;;9.35;;
62880;SDS011;48969;49.934;8.596;2022-10-31T08:26:10;11.47;;;8.60;;
62880;SDS011;48969;49.934;8.596;2022-10-31T08:28:36;10.80;;;8.70;;
62880;SDS011;48969;49.934;8.596;2022-10-31T08:31:01;13.55;;;8.50;;
62880;SDS011;48969;49.934;8.596;2022-10-31T08:33:26;14.57;;;8.75;;
62880;SDS011;48969;49.934;8.596;2022-10-31T08:35:51;11.88;;;8.55;;
62880;SDS011;48969;49.934;8.596;2022-10-31T08:38:16;12.90;;;8.48;;
62880;SDS011;48969;49.934;8.596;2022-10-31T08:40:41;13.63;;;8.52;;
62880;SDS011;48969;49.934;8.596;2022-10-31T08:43:14;10.57;;;7.87;;
62880;SDS011;48969;49.934;8.596;2022-10-31T08:45:39;10.10;;;7.97;;
62880;SDS011;48969;49.934;8.596;2022-10-31T08:48:06;15.00;;;8.50;;
62880;SDS011;48969;49.934;8.596;2022-10-31T08:50:32;12.38;;;7.90;;
62880;SDS011;48969;49.934;8.596;2022-10-31T08:53:16;10.60;;;8.45;;
62880;SDS011;48969;49.934;8.596;2022-10-31T08:55:42;10.55;;;7.93;;
62880;SDS011;48969;49.934;8.596;2022-10-31T08:58:10;9.85;;;7.75;;
62880;SDS011;48969;49.934;8.596;2022-10-31T09:00:35;13.18;;;8.38;;
62880;SDS011;48969;49.934;8.596;2022-10-31T09:03:01;12.98;;;8.18;;
62880;SDS011;48969;49.934;8.596;2022-10-31T09:05:27;13.15;;;8.27;;
62880;SDS011;48969;49.934;8.596;2022-10-31T09:07:56;14.38;;;8.32;;
62880;SDS011;48969;49.934;8.596;2022-10-31T09:10:22;16.38;;;9.43;;
62880;SDS011;48969;49.934;8.596;2022-10-31T09:12:47;11.37;;;9.37;;
62880;SDS011;48969;49.934;8.596;2022-10-31T09:15:12;13.88;;;8.77;;
62880;SDS011;48969;49.934;8.596;2022-10-31T09:17:37;13.30;;;9.77;;
62880;SDS011;48969;49.934;8.596;2022-10-31T09:20:03;14.98;;;9.77;;
62880;SDS011;48969;49.934;8.596;2022-10-31T09:22:28;13.57;;;10.35;;
62880;SDS011;48969;49.934;8.596;2022-10-31T09:24:53;13.63;;;9.05;;
62880;SDS011;48969;49.934;8.596;2022-10-31T09:27:18;15.30;;;9.27;;
62880;SDS011;48969;49.934;8.596;2022-10-31T09:29:43;13.40;;;9.57;;
62880;SDS011;48969;49.934;8.596;2022-10-31T09:32:08;14.85;;;9.77;;
62880;SDS011;48969;49.934;8.596;2022-10-31T09:34:33;12.17;;;9.43;;
62880;SDS011;48969;49.934;8.596;2022-10-31T09:36:59;21.07;;;10.00;;
62880;SDS011;48969;49.934;8.596;2022-10-31T09:39:24;12.98;;;9.85;;
62880;SDS011;48969;49.934;8.596;2022-10-31T09:41:59;16.73;;;10.53;;
62880;SDS011;48969;49.934;8.596;2022-10-31T09:47:11;13.77;;;10.15;;
62880;SDS011;48969;49.934;8.596;2022-10-31T09:52:19;14.27;;;10.13;;
62880;SDS011;48969;49.934;8.596;2022-10-31T09:54:51;18.92;;;9.98;;
62880;SDS011;48969;49.934;8.596;2022-10-31T09:57:18;13.90;;;10.75;;
62880;SDS011;48969;49.934;8.596;2022-10-31T09:59:45;18.50;;;11.18;;
62880;SDS011;48969;49.934;8.596;2022-10-31T10:02:23;17.15;;;10.88;;
62880;SDS011;48969;49.934;8.596;2022-10-31T10:07:24;15.50;;;10.57;;
62880;SDS011;48969;49.934;8.596;2022-10-31T10:09:51;14.45;;;10.60;;
62880;SDS011;48969;49.934;8.596;2022-10-31T10:12:35;15.82;;;11.35;;
62880;SDS011;48969;49.934;8.596;2022-10-31T10:15:09;16.83;;;10.77;;
62880;SDS011;48969;49.934;8.596;2022-10-31T10:23:29;17.33;;;10.93;;
62880;SDS011;48969;49.934;8.596;2022-10-31T10:28:38;19.58;;;11.85;;
62880;SDS011;48969;49.934;8.596;2022-10-31T10:31:10;18.95;;;11.45;;
62880;SDS011;48969;49.934;8.596;2022-10-31T10:33:39;13.55;;;10.35;;
62880;SDS011;48969;49.934;8.596;2022-10-31T10:36:06;14.95;;;10.65;;
62880;SDS011;48969;49.934;8.596;2022-10-31T10:38:45;16.30;;;11.82;;
62880;SDS011;48969;49.934;8.596;2022-10-31T10:41:17;14.60;;;10.52;;
62880;SDS011;48969;49.934;8.596;2022-10-31T10:43:43;14.68;;;9.75;;
62880;SDS011;48969;49.934;8.596;2022-10-31T10:56:33;13.00;;;9.93;;
62880;SDS011;48969;49.934;8.596;2022-10-31T10:59:01;16.33;;;10.70;;
62880;SDS011;48969;49.934;8.596;2022-10-31T11:01:27;15.25;;;9.80;;
62880;SDS011;48969;49.934;8.596;2022-10-31T11:03:52;10.50;;;8.83;;
62880;SDS011;48969;49.934;8.596;2022-10-31T11:06:23;13.50;;;9.18;;
62880;SDS011;48969;49.934;8.596;2022-10-31T11:08:52;15.23;;;9.82;;
62880;SDS011;48969;49.934;8.596;2022-10-31T11:11:28;15.30;;;9.20;;
62880;SDS011;48969;49.934;8.596;2022-10-31T11:14:11;13.93;;;9.23;;
62880;SDS011;48969;49.934;8.596;2022-10-31T11:16:38;13.05;;;8.70;;
62880;SDS011;48969;49.934;8.596;2022-10-31T11:19:08;13.27;;;8.80;;
62880;SDS011;48969;49.934;8.596;2022-10-31T11:21:37;12.85;;;8.93;;
62880;SDS011;48969;49.934;8.596;2022-10-31T11:26:33;12.20;;;8.48;;
62880;SDS011;48969;49.934;8.596;2022-10-31T11:29:00;15.40;;;8.93;;
62880;SDS011;48969;49.934;8.596;2022-10-31T11:31:27;11.35;;;8.10;;
62880;SDS011;48969;49.934;8.596;2022-10-31T11:34:02;15.02;;;8.98;;
62880;SDS011;48969;49.934;8.596;2022-10-31T11:36:31;11.13;;;7.70;;
62880;SDS011;48969;49.934;8.596;2022-10-31T11:38:57;12.23;;;8.23;;
62880;SDS011;48969;49.934;8.596;2022-10-31T11:43:56;14.18;;;8.43;;
62880;SDS011;48969;49.934;8.596;2022-10-31T11:46:31;14.65;;;8.63;;
62880;SDS011;48969;49.934;8.596;2022-10-31T11:48:58;12.63;;;8.23;;
62880;SDS011;48969;49.934;8.596;2022-10-31T11:51:24;14.27;;;8.85;;
62880;SDS011;48969;49.934;8.596;2022-10-31T11:53:53;13.82;;;8.23;;
62880;SDS011;48969;49.934;8.596;2022-10-31T11:56:19;11.13;;;7.97;;
62880;SDS011;48969;49.934;8.596;2022-10-31T11:58:54;12.35;;;8.70;;
62880;SDS011;48969;49.934;8.596;2022-10-31T12:01:22;12.13;;;7.80;;
62880;SDS011;48969;49.934;8.596;2022-10-31T12:03:51;11.18;;;7.90;;
62880;SDS011;48969;49.934;8.596;2022-10-31T12:06:21;14.45;;;8.05;;
62880;SDS011;48969;49.934;8.596;2022-10-31T12:08:47;11.40;;;8.40;;
62880;SDS011;48969;49.934;8.596;2022-10-31T12:18:40;11.38;;;7.43;;
62880;SDS011;48969;49.934;8.596;2022-10-31T12:23:49;10.73;;;6.95;;
62880;SDS011;48969;49.934;8.596;2022-10-31T12:26:39;11.80;;;7.13;;
62880;SDS011;48969;49.934;8.596;2022-10-31T12:29:11;10.80;;;6.85;;
62880;SDS011;48969;49.934;8.596;2022-10-31T12:42:04;14.05;;;7.10;;
62880;SDS011;48969;49.934;8.596;2022-10-31T12:47:10;11.63;;;6.57;;
62880;SDS011;48969;49.934;8.596;2022-10-31T12:49:39;10.48;;;6.57;;
62880;SDS011;48969;49.934;8.596;2022-10-31T12:59:40;11.77;;;6.28;;
62880;SDS011;48969;49.934;8.596;2022-10-31T13:02:16;11.32;;;6.38;;
62880;SDS011;48969;49.934;8.596;2022-10-31T13:04:46;10.38;;;6.07;;
62880;SDS011;48969;49.934;8.596;2022-10-31T13:07:15;12.27;;;6.95;;
62880;SDS011;48969;49.934;8.596;2022-10-31T13:09:45;11.25;;;6.45;;
62880;SDS011;48969;49.934;8.596;2022-10-31T13:12:14;10.90;;;7.03;;
62880;SDS011;48969;49.934;8.596;2022-10-31T13:14:44;10.07;;;6.13;;
62880;SDS011;48969;49.934;8.596;2022-10-31T13:17:18;12.13;;;6.57;;
62880;SDS011;48969;49.934;8.596;2022-10-31T13:19:46;10.35;;;6.93;;
62880;SDS011;48969;49.934;8.596;2022-10-31T13:22:16;10.88;;;6.93;;
62880;SDS011;48969;49.934;8.596;2022-10-31T13:24:48;10.40;;;6.45;;
62880;SDS011;48969;49.934;8.596;2022-10-31T13:27:17;12.00;;;6.38;;
62880;SDS011;48969;49.934;8.596;2022-10-31T13:32:13;10.43;;;6.60;;
62880;SDS011;48969;49.934;8.596;2022-10-31T13:39:54;10.68;;;6.22;;
62880;SDS011;48969;49.934;8.596;2022-10-31T13:45:17;15.05;;;7.30;;
62880;SDS011;48969;49.934;8.596;2022-10-31T13:47:42;11.75;;;6.88;;
62880;SDS011;48969;49.934;8.596;2022-10-31T13:50:24;12.55;;;6.80;;
62880;SDS011;48969;49.934;8.596;2022-10-31T13:52:50;11.55;;;6.13;;
62880;SDS011;48969;49.934;8.596;2022-10-31T13:55:34;9.70;;;6.47;;
62880;SDS011;48969;49.934;8.596;2022-10-31T13:58:00;12.13;;;6.53;;
62880;SDS011;48969;49.934;8.596;2022-10-31T14:00:28;9.40;;;6.10;;
62880;SDS011;48969;49.934;8.596;2022-10-31T14:02:56;12.20;;;6.43;;
62880;SDS011;48969;49.934;8.596;2022-10-31T14:05:22;13.38;;;6.95;;
62880;SDS011;48969;49.934;8.596;2022-10-31T14:07:48;13.85;;;7.20;;
62880;SDS011;48969;49.934;8.596;2022-10-31T14:10:22;12.57;;;6.72;;
62880;SDS011;48969;49.934;8.596;2022-10-31T14:12:49;11.55;;;6.88;;
62880;SDS011;48969;49.934;8.596;2022-10-31T14:15:22;10.38;;;6.57;;
62880;SDS011;48969;49.934;8.596;2022-10-31T14:17:51;12.43;;;6.30;;
62880;SDS011;48969;49.934;8.596;2022-10-31T14:22:42;8.68;;;6.10;;
62880;SDS011;48969;49.934;8.596;2022-10-31T14:27:51;11.60;;;6.45;;
62880;SDS011;48969;49.934;8.596;2022-10-31T14:30:18;7.82;;;5.72;;
62880;SDS011;48969;49.934;8.596;2022-10-31T14:32:44;8.23;;;6.20;;
62880;SDS011;48969;49.934;8.596;2022-10-31T14:35:14;8.32;;;5.90;;
62880;SDS011;48969;49.934;8.596;2022-10-31T14:37:49;10.38;;;6.10;;
62880;SDS011;48969;49.934;8.596;2022-10-31T14:40:25;13.40;;;6.60;;
62880;SDS011;48969;49.934;8.596;2022-10-31T14:53:14;12.80;;;6.72;;
62880;SDS011;48969;49.934;8.596;2022-10-31T14:55:43;10.98;;;6.82;;
62880;SDS011;48969;49.934;8.596;2022-10-31T14:58:12;9.43;;;6.07;;
62880;SDS011;48969;49.934;8.596;2022-10-31T15:00:41;11.05;;;5.95;;
62880;SDS011;48969;49.934;8.596;2022-10-31T15:03:12;11.65;;;6.05;;
62880;SDS011;48969;49.934;8.596;2022-10-31T15:05:57;8.90;;;6.03;;
62880;SDS011;48969;49.934;8.596;2022-10-31T15:08:31;11.98;;;6.63;;
62880;SDS011;48969;49.934;8.596;2022-10-31T15:10:57;11.23;;;6.60;;
62880;SDS011;48969;49.934;8.596;2022-10-31T15:13:22;13.33;;;6.90;;
62880;SDS011;48969;49.934;8.596;2022-10-31T15:15:48;13.98;;;7.65;;
62880;SDS011;48969;49.934;8.596;2022-10-31T15:18:16;11.82;;;6.28;;
62880;SDS011;48969;49.934;8.596;2022-10-31T15:20:42;11.02;;;6.90;;
62880;SDS011;48969;49.934;8.596;2022-10-31T15:23:09;8.48;;;6.45;;
62880;SDS011;48969;49.934;8.596;2022-10-31T15:25:35;10.90;;;7.00;;
62880;SDS011;48969;49.934;8.596;2022-10-31T15:28:00;12.57;;;6.60;;
62880;SDS011;48969;49.934;8.596;2022-10-31T15:30:26;11.90;;;7.10;;
62880;SDS011;48969;49.934;8.596;2022-10-31T15:32:52;13.35;;;7.47;;
62880;SDS011;48969;49.934;8.596;2022-10-31T15:35:25;11.98;;;6.35;;
62880;SDS011;48969;49.934;8.596;2022-10-31T15:37:51;11.88;;;6.82;;
62880;SDS011;48969;49.934;8.596;2022-10-31T15:40:17;12.23;;;7.05;;
62880;SDS011;48969;49.934;8.596;2022-10-31T15:42:44;13.07;;;7.20;;
62880;SDS011;48969;49.934;8.596;2022-10-31T15:47:36;11.03;;;6.40;;
62880;SDS011;48969;49.934;8.596;2022-10-31T15:50:02;9.23;;;6.88;;
62880;SDS011;48969;49.934;8.596;2022-10-31T15:52:32;16.13;;;6.95;;
62880;SDS011;48969;49.934;8.596;2022-10-31T15:55:20;10.52;;;6.30;;
62880;SDS011;48969;49.934;8.596;2022-10-31T15:57:46;10.65;;;6.70;;
62880;SDS011;48969;49.934;8.596;2022-10-31T16:02:46;15.77;;;7.88;;
62880;SDS011;48969;49.934;8.596;2022-10-31T16:05:16;15.80;;;8.10;;
62880;SDS011;48969;49.934;8.596;2022-10-31T16:07:47;12.50;;;7.60;;
62880;SDS011;48969;49.934;8.596;2022-10-31T16:10:23;14.95;;;8.20;;
62880;SDS011;48969;49.934;8.596;2022-10-31T16:12:51;14.43;;;8.65;;
62880;SDS011;48969;49.934;8.596;2022-10-31T16:15:17;14.35;;;8.32;;
62880;SDS011;48969;49.934;8.596;2022-10-31T16:17:45;12.70;;;9.07;;
62880;SDS011;48969;49.934;8.596;2022-10-31T16:20:20;16.48;;;9.00;;
62880;SDS011;48969;49.934;8.596;2022-10-31T16:22:47;13.77;;;9.07;;
62880;SDS011;48969;49.934;8.596;2022-10-31T16:25:14;18.80;;;8.55;;
62880;SDS011;48969;49.934;8.596;2022-10-31T16:27:40;11.57;;;8.48;;
62880;SDS011;48969;49.934;8.596;2022-10-31T16:32:54;15.32;;;8.20;;
62880;SDS011;48969;49.934;8.596;2022-10-31T16:37:58;14.35;;;7.57;;
62880;SDS011;48969;49.934;8.596;2022-10-31T16:40:23;11.45;;;8.10;;
62880;SDS011;48969;49.934;8.596;2022-10-31T16:42:49;14.18;;;7.53;;